UPSVAC Airport Information Service

Las Vegas McCarran International Airport

ICAO: KLAS Country: United States
Latitude: 36.0801 Longitude: -115.152
Latest Arrival : UPSJUMP (KSLC-KLAS) Latest Departure : UPSJUMP (KLAS-KRNO)


WX CaptureLIVE
Data provided by noaa.gov | Fetched at 10:32:27

METAR : KLAS 010956Z 27005KT 10SM CLR 04/M16 A3032 RMK AO2 SLP269 T00391161 $

TAF : KLAS 010847Z 0109/0212 22006KT P6SM SKC FM011400 VRB05KT P6SM SKC FM011900 05006KT P6SM SKC FM020200 23006KT P6SM FEW250


Runway Data for KLAS
Data provided by openaviationdata.com

Runway ID Mag Var Hdg Length Elevation Surface ILS Freq ILS Id ILS Slope
01L 15 8993 ft 2114 ft Concrete 110.1 ICUA 3
01R 15 9783 ft 2114 ft Asphalt -- -- --
07L 15 74° 14495 ft 2114 ft Asphalt -- -- --
07R 15 74° 10512 ft 2114 ft Asphalt -- -- --
19L 15 189° 9783 ft 2114 ft Asphalt -- -- --
19R 15 189° 8993 ft 2114 ft Concrete -- -- --
25L 15 254° 10512 ft 2114 ft Asphalt 111.75 IRLE 3
25R 15 254° 14495 ft 2114 ft Asphalt 110.3 ILAS 3

Las Vegas McCarran International Airport, United States
Use only for reference purposes



Not for navigational purposes.